createdAt,value
2018-12-14T00:01:33.187Z,21.43
2018-12-14T00:04:02.451Z,23.40
2018-12-14T00:06:30.937Z,20.77
2018-12-14T00:08:59.376Z,24.33
2018-12-14T00:11:27.819Z,23.97
2018-12-14T00:13:56.267Z,23.10
2018-12-14T00:16:24.694Z,21.07
2018-12-14T00:18:53.137Z,23.10
2018-12-14T00:21:21.620Z,22.87
2018-12-14T00:23:50.060Z,22.43
2018-12-14T00:26:18.512Z,23.90
2018-12-14T00:28:46.962Z,23.93
2018-12-14T00:31:15.402Z,24.23
2018-12-14T00:33:43.858Z,25.30
2018-12-14T00:36:12.285Z,27.50
2018-12-14T00:38:40.797Z,26.93
2018-12-14T00:41:09.228Z,24.33
2018-12-14T00:43:37.668Z,24.90
2018-12-14T00:46:06.094Z,29.53
2018-12-14T00:48:34.516Z,25.43
2018-12-14T00:51:02.968Z,26.77
2018-12-14T00:53:31.393Z,27.53
2018-12-14T00:55:59.847Z,26.13
2018-12-14T00:58:28.271Z,28.97
2018-12-14T01:00:56.724Z,25.53
2018-12-14T01:03:25.165Z,26.87
2018-12-14T01:05:53.604Z,27.83
2018-12-14T01:08:22.033Z,27.43
2018-12-14T01:10:50.482Z,26.90
2018-12-14T01:13:18.905Z,29.07
2018-12-14T01:15:48.277Z,27.00
2018-12-14T01:18:16.699Z,26.87
2018-12-14T01:20:45.145Z,25.80
2018-12-14T01:23:13.574Z,29.50
2018-12-14T01:25:42.010Z,27.53
2018-12-14T01:28:10.446Z,27.60
2018-12-14T01:30:38.907Z,28.90
2018-12-14T01:33:07.332Z,28.67
2018-12-14T01:35:35.832Z,25.77
2018-12-14T01:38:04.327Z,27.73
2018-12-14T01:40:32.772Z,29.40
2018-12-14T01:43:01.209Z,30.40
2018-12-14T01:45:29.710Z,29.27
2018-12-14T01:47:58.137Z,29.50
2018-12-14T01:50:26.589Z,26.97
2018-12-14T01:52:55.016Z,29.37
2018-12-14T01:55:23.608Z,31.20
2018-12-14T01:57:52.116Z,29.07
2018-12-14T02:00:20.976Z,28.10
2018-12-14T02:02:49.401Z,29.77
2018-12-14T02:05:17.845Z,29.23
2018-12-14T02:07:46.277Z,32.50
2018-12-14T02:10:14.746Z,29.67
2018-12-14T02:12:43.185Z,27.33
2018-12-14T02:15:11.652Z,31.90
2018-12-14T02:17:40.073Z,31.93
2018-12-14T02:20:08.672Z,30.00
2018-12-14T02:22:37.096Z,31.67
2018-12-14T02:25:06.064Z,35.27
2018-12-14T02:27:34.505Z,30.50
2018-12-14T02:30:09.948Z,29.23
2018-12-14T02:32:38.387Z,29.80
2018-12-14T02:35:06.887Z,31.33
2018-12-14T02:37:35.321Z,30.30
2018-12-14T02:40:03.835Z,31.73
2018-12-14T02:42:32.318Z,32.87
2018-12-14T02:45:00.793Z,34.67
2018-12-14T02:47:29.220Z,31.87
2018-12-14T02:49:57.674Z,33.10
2018-12-14T02:52:26.101Z,32.97
2018-12-14T02:54:54.540Z,32.43
2018-12-14T02:57:22.966Z,32.73
2018-12-14T02:59:51.413Z,32.67
2018-12-14T03:02:19.931Z,32.93
2018-12-14T03:04:48.381Z,34.53
2018-12-14T03:07:16.830Z,29.30
2018-12-14T03:09:45.590Z,35.57
2018-12-14T03:12:14.073Z,30.43
2018-12-14T03:14:42.975Z,32.63
2018-12-14T03:17:11.504Z,34.33
2018-12-14T03:19:39.946Z,33.40
2018-12-14T03:22:08.386Z,33.70
2018-12-14T03:24:36.813Z,32.17
2018-12-14T03:27:05.400Z,33.17
2018-12-14T03:29:33.830Z,37.73
2018-12-14T03:32:02.280Z,33.93
2018-12-14T03:34:30.700Z,32.17
2018-12-14T03:36:59.146Z,34.27
2018-12-14T03:39:27.565Z,35.53
2018-12-14T03:41:56.014Z,37.17
2018-12-14T03:44:24.439Z,33.10
2018-12-14T03:46:52.952Z,31.87
2018-12-14T03:49:21.889Z,38.80
2018-12-14T03:51:50.336Z,37.37
2018-12-14T03:54:18.762Z,35.43
2018-12-14T03:56:47.207Z,37.17
2018-12-14T03:59:15.637Z,37.20
2018-12-14T04:01:44.132Z,34.43
2018-12-14T04:04:12.562Z,31.13
2018-12-14T04:06:41.066Z,37.30
2018-12-14T04:09:09.493Z,36.30
2018-12-14T04:11:37.959Z,34.20
2018-12-14T04:14:06.382Z,32.80
2018-12-14T04:16:34.830Z,34.07
2018-12-14T04:19:03.273Z,32.53
2018-12-14T04:21:32.555Z,38.27
2018-12-14T04:24:01.254Z,38.07
2018-12-14T04:26:29.723Z,34.10
2018-12-14T04:28:58.185Z,33.57
2018-12-14T04:31:26.620Z,32.77
2018-12-14T04:33:55.672Z,34.70
2018-12-14T04:36:24.118Z,34.93
2018-12-14T04:38:52.552Z,34.67
2018-12-14T04:41:21.005Z,32.67
2018-12-14T04:43:49.433Z,34.10
2018-12-14T04:46:17.877Z,33.03
2018-12-14T04:48:46.292Z,31.43
2018-12-14T04:51:14.722Z,35.87
2018-12-14T04:53:43.171Z,37.30
2018-12-14T04:56:11.594Z,32.07
2018-12-14T04:58:40.050Z,34.17
2018-12-14T05:01:08.488Z,36.03
2018-12-14T05:03:36.934Z,32.97
2018-12-14T05:06:05.432Z,34.67
2018-12-14T05:08:33.897Z,32.23
2018-12-14T05:11:02.318Z,36.13
2018-12-14T05:13:30.771Z,35.30
2018-12-14T05:15:59.193Z,31.60
2018-12-14T05:18:27.658Z,35.90
2018-12-14T05:20:56.089Z,33.07
2018-12-14T05:23:24.540Z,34.50
2018-12-14T05:25:52.972Z,36.83
2018-12-14T05:28:21.428Z,34.30
2018-12-14T05:30:49.849Z,32.60
2018-12-14T05:33:18.283Z,34.37
2018-12-14T05:35:46.774Z,38.90
2018-12-14T05:38:15.275Z,36.63
2018-12-14T05:40:43.719Z,35.03
2018-12-14T05:43:12.188Z,35.70
2018-12-14T05:45:40.980Z,33.53
2018-12-14T05:48:09.406Z,34.50
2018-12-14T05:50:37.853Z,33.20
2018-12-14T05:53:06.277Z,34.20
2018-12-14T05:55:34.717Z,35.43
2018-12-14T05:58:03.179Z,35.77
2018-12-14T06:00:32.580Z,31.00
2018-12-14T06:03:01.018Z,37.23
2018-12-14T06:05:29.457Z,33.40
2018-12-14T06:07:57.897Z,36.20
2018-12-14T06:10:26.372Z,34.37
2018-12-14T06:12:54.792Z,34.00
2018-12-14T06:15:23.237Z,31.70
2018-12-14T06:17:51.663Z,31.33
2018-12-14T06:20:20.114Z,34.57
2018-12-14T06:22:48.540Z,33.97
2018-12-14T06:25:16.989Z,35.60
2018-12-14T06:27:45.424Z,36.07
2018-12-14T06:30:13.860Z,34.83
2018-12-14T06:32:42.296Z,31.30
2018-12-14T06:35:10.739Z,33.97
2018-12-14T06:37:39.167Z,30.50
2018-12-14T06:40:07.656Z,32.10
2018-12-14T06:42:36.083Z,31.87
2018-12-14T06:45:05.781Z,35.80
2018-12-14T06:47:34.280Z,33.80
2018-12-14T06:50:02.749Z,37.47
2018-12-14T06:52:31.213Z,32.20
2018-12-14T06:54:59.633Z,32.67
2018-12-14T06:57:28.076Z,34.43
2018-12-14T06:59:56.511Z,34.80
2018-12-14T07:02:24.966Z,37.47
2018-12-14T07:04:53.398Z,35.57
2018-12-14T07:07:21.852Z,34.77
2018-12-14T07:09:50.385Z,33.57
2018-12-14T07:12:18.825Z,37.63
2018-12-14T07:14:47.258Z,34.77
2018-12-14T07:17:15.719Z,33.30
2018-12-14T07:19:44.150Z,34.90
2018-12-14T07:22:12.599Z,35.70
2018-12-14T07:24:41.023Z,35.57
2018-12-14T07:27:09.473Z,31.33
2018-12-14T07:29:37.900Z,34.67
2018-12-14T07:32:06.357Z,31.10
2018-12-14T07:34:34.784Z,31.67
2018-12-14T07:37:03.265Z,34.47
2018-12-14T07:39:31.690Z,33.60
2018-12-14T07:42:00.126Z,36.33
2018-12-14T07:44:28.604Z,34.43
2018-12-14T07:46:57.270Z,35.47
2018-12-14T07:49:25.748Z,34.63
2018-12-14T07:51:54.192Z,39.43
2018-12-14T07:54:22.886Z,30.80
2018-12-14T07:56:51.325Z,35.50
2018-12-14T07:59:20.693Z,36.20
2018-12-14T08:01:49.161Z,34.00
2018-12-14T08:04:18.332Z,33.37
2018-12-14T08:06:46.996Z,35.23
2018-12-14T08:09:15.464Z,35.50
2018-12-14T08:11:43.906Z,35.70
2018-12-14T08:14:12.350Z,35.40
2018-12-14T08:16:40.786Z,33.60
2018-12-14T08:19:09.256Z,29.87
2018-12-14T08:21:37.694Z,33.10
2018-12-14T08:24:06.135Z,35.07
2018-12-14T08:26:34.553Z,41.20
2018-12-14T08:29:08.947Z,30.73
2018-12-14T08:31:37.427Z,33.03
2018-12-14T08:34:05.868Z,33.53
2018-12-14T08:36:34.285Z,32.90
2018-12-14T08:39:02.812Z,32.10
2018-12-14T08:41:31.249Z,28.17
2018-12-14T08:43:59.710Z,32.23
2018-12-14T08:46:28.146Z,32.43
2018-12-14T08:48:56.614Z,33.33
2018-12-14T08:51:25.101Z,29.33
2018-12-14T08:53:53.612Z,30.33
2018-12-14T08:56:22.061Z,30.13
2018-12-14T08:58:50.500Z,31.63
2018-12-14T09:01:18.948Z,33.60
2018-12-14T09:03:47.411Z,33.97
2018-12-14T09:06:15.841Z,31.03
2018-12-14T09:08:44.288Z,31.10
2018-12-14T09:11:13.043Z,30.90
2018-12-14T09:13:47.716Z,31.83
2018-12-14T09:16:11.916Z,29.03
2018-12-14T09:18:40.356Z,27.83
2018-12-14T09:21:08.783Z,28.80
2018-12-14T09:23:38.068Z,32.10
2018-12-14T09:26:06.514Z,33.33
2018-12-14T09:28:35.589Z,28.17
2018-12-14T09:31:04.071Z,27.83
2018-12-14T09:33:32.508Z,28.23
2018-12-14T09:36:00.939Z,27.33
2018-12-14T09:38:29.389Z,27.60
2018-12-14T09:40:57.807Z,26.10
2018-12-14T09:43:26.656Z,27.50
2018-12-14T09:45:55.072Z,28.30
2018-12-14T09:48:23.544Z,27.20
2018-12-14T09:50:52.029Z,25.03
2018-12-14T09:53:20.943Z,20.83
2018-12-14T09:55:49.360Z,24.07
2018-12-14T09:58:17.780Z,24.40
2018-12-14T10:00:46.232Z,25.27
2018-12-14T10:03:14.684Z,22.07
2018-12-14T10:05:43.119Z,21.60
2018-12-14T10:08:11.540Z,23.90
2018-12-14T10:10:40.575Z,19.97
2018-12-14T10:13:09.358Z,24.20
2018-12-14T10:15:37.798Z,21.67
2018-12-14T10:18:06.234Z,23.73
2018-12-14T10:20:35.031Z,21.20
2018-12-14T10:23:03.717Z,21.70
2018-12-14T10:25:32.185Z,22.00
2018-12-14T10:28:00.625Z,20.63
2018-12-14T10:30:29.094Z,21.07
2018-12-14T10:32:57.529Z,20.83
2018-12-14T10:35:25.980Z,23.80
2018-12-14T10:37:54.440Z,21.40
2018-12-14T10:40:22.886Z,21.10
2018-12-14T10:42:51.327Z,21.00
2018-12-14T10:45:20.777Z,21.87
2018-12-14T10:47:49.202Z,19.10
2018-12-14T10:50:17.645Z,20.83
2018-12-14T10:52:46.062Z,23.63
2018-12-14T10:55:14.519Z,19.17
2018-12-14T10:57:43.351Z,20.87
2018-12-14T11:00:16.058Z,19.03
2018-12-14T11:02:44.490Z,16.37
2018-12-14T11:05:12.998Z,20.63
2018-12-14T11:07:41.440Z,20.07
2018-12-14T11:10:09.989Z,18.83
2018-12-14T11:12:38.421Z,19.37
2018-12-14T11:15:06.983Z,21.10
2018-12-14T11:17:35.416Z,19.83
2018-12-14T11:20:03.917Z,20.80
2018-12-14T11:22:32.625Z,19.77
2018-12-14T11:25:01.069Z,17.77
2018-12-14T11:27:29.514Z,18.87
2018-12-14T11:29:57.966Z,20.10
2018-12-14T11:32:28.097Z,20.37
2018-12-14T11:34:56.546Z,23.63
2018-12-14T11:37:24.962Z,21.43
2018-12-14T11:39:53.396Z,20.63
2018-12-14T11:42:21.826Z,21.77
2018-12-14T11:44:50.292Z,19.33
2018-12-14T11:47:18.719Z,18.40
2018-12-14T11:49:48.513Z,23.37
2018-12-14T11:52:17.588Z,21.63
2018-12-14T11:54:46.038Z,19.33
2018-12-14T11:57:14.528Z,23.03
2018-12-14T11:59:42.981Z,20.83
2018-12-14T12:02:12.734Z,21.37
2018-12-14T12:04:41.539Z,21.50
2018-12-14T12:07:10.075Z,21.47
2018-12-14T12:09:38.749Z,20.90
2018-12-14T12:12:07.172Z,20.97
2018-12-14T12:14:35.593Z,21.70
2018-12-14T12:17:04.027Z,22.23
2018-12-14T12:19:32.481Z,23.67
2018-12-14T12:22:00.977Z,18.57
2018-12-14T12:24:29.412Z,19.27
2018-12-14T12:26:57.848Z,23.10
2018-12-14T12:29:26.324Z,21.67
2018-12-14T12:31:54.761Z,20.87
2018-12-14T12:34:23.185Z,20.33
2018-12-14T12:36:51.638Z,19.63
2018-12-14T12:39:20.077Z,19.53
2018-12-14T12:41:48.516Z,19.50
2018-12-14T12:44:16.972Z,21.63
2018-12-14T12:46:45.438Z,19.50
2018-12-14T12:49:13.856Z,18.10
2018-12-14T12:51:42.300Z,19.17
2018-12-14T12:54:10.728Z,18.87
2018-12-14T12:56:39.646Z,21.93
2018-12-14T12:59:08.125Z,19.37
2018-12-14T13:01:36.796Z,22.10
2018-12-14T13:04:05.240Z,19.37
2018-12-14T13:06:33.704Z,18.13
2018-12-14T13:09:02.136Z,19.83
2018-12-14T13:11:30.598Z,19.53
2018-12-14T13:13:59.026Z,20.83
2018-12-14T13:16:27.540Z,18.60
2018-12-14T13:18:55.961Z,19.37
2018-12-14T13:21:24.485Z,19.87
2018-12-14T13:23:52.916Z,20.27
2018-12-14T13:26:21.356Z,19.87
2018-12-14T13:28:49.775Z,19.20
2018-12-14T13:31:18.220Z,20.23
2018-12-14T13:33:46.654Z,20.70
2018-12-14T13:36:15.110Z,18.20
2018-12-14T13:38:43.557Z,19.10
2018-12-14T13:41:12.021Z,18.53
2018-12-14T13:43:40.460Z,20.60
2018-12-14T13:46:08.926Z,20.97
2018-12-14T13:48:37.364Z,19.80
2018-12-14T13:51:06.191Z,19.97
2018-12-14T13:53:34.881Z,20.53
2018-12-14T13:56:03.324Z,20.17
2018-12-14T13:58:31.821Z,19.57
2018-12-14T14:01:00.273Z,23.70
2018-12-14T14:03:28.718Z,20.20
2018-12-14T14:05:57.220Z,20.77
2018-12-14T14:08:25.645Z,19.33
2018-12-14T14:10:54.081Z,20.80
2018-12-14T14:13:22.496Z,18.87
2018-12-14T14:15:52.601Z,19.53
2018-12-14T14:18:21.026Z,20.73
2018-12-14T14:20:49.503Z,21.00
2018-12-14T14:23:18.571Z,21.23
2018-12-14T14:25:47.287Z,19.23
2018-12-14T14:28:15.729Z,20.13
2018-12-14T14:30:44.149Z,21.73
2018-12-14T14:33:12.596Z,18.93
2018-12-14T14:35:41.058Z,18.80
2018-12-14T14:38:09.555Z,19.60
2018-12-14T14:40:37.996Z,19.63
2018-12-14T14:43:06.444Z,19.87
2018-12-14T14:45:34.871Z,18.67
2018-12-14T14:48:03.341Z,19.07
2018-12-14T14:50:31.769Z,16.70
2018-12-14T14:53:00.224Z,21.30
2018-12-14T14:55:28.690Z,19.80
2018-12-14T14:57:57.159Z,20.17
2018-12-14T15:00:25.665Z,19.47
2018-12-14T15:02:54.845Z,19.03
2018-12-14T15:05:23.269Z,19.00
2018-12-14T15:07:51.734Z,19.60
2018-12-14T15:10:21.003Z,21.77
2018-12-14T15:12:49.469Z,21.10
2018-12-14T15:15:17.896Z,19.90
2018-12-14T15:17:46.358Z,20.43
2018-12-14T15:20:14.785Z,20.60
2018-12-14T15:22:43.228Z,20.13
2018-12-14T15:25:11.705Z,20.37
2018-12-14T15:27:40.141Z,22.37
2018-12-14T15:30:08.676Z,21.77
2018-12-14T15:32:37.229Z,21.33
2018-12-14T15:35:06.113Z,19.60
2018-12-14T15:37:34.552Z,21.07
2018-12-14T15:40:02.978Z,20.83
2018-12-14T15:42:32.064Z,21.37
2018-12-14T15:45:00.488Z,19.80
2018-12-14T15:47:28.949Z,21.70
2018-12-14T15:49:57.438Z,19.17
2018-12-14T15:52:27.958Z,20.27
2018-12-14T15:54:57.240Z,23.20
2018-12-14T15:57:25.761Z,21.10
2018-12-14T15:59:54.193Z,23.97
2018-12-14T16:02:22.697Z,19.33
2018-12-14T16:04:51.118Z,21.77
2018-12-14T16:07:19.566Z,20.43
2018-12-14T16:09:47.992Z,19.83
2018-12-14T16:12:16.434Z,20.57
2018-12-14T16:14:44.891Z,18.30
2018-12-14T16:17:13.380Z,18.50
2018-12-14T16:19:41.875Z,19.80
2018-12-14T16:22:10.355Z,20.87
2018-12-14T16:24:39.101Z,21.73
2018-12-14T16:27:07.611Z,19.67
2018-12-14T16:29:36.052Z,18.30
2018-12-14T16:32:04.620Z,18.67
2018-12-14T16:34:33.049Z,19.57
2018-12-14T16:37:01.775Z,19.13
2018-12-14T16:39:32.486Z,19.97
2018-12-14T16:42:00.956Z,22.30
2018-12-14T16:44:29.372Z,19.97
2018-12-14T16:46:57.944Z,23.10
2018-12-14T16:49:26.384Z,19.80
2018-12-14T16:51:54.816Z,21.13
2018-12-14T16:54:23.275Z,18.07
2018-12-14T16:56:51.713Z,21.63
2018-12-14T16:59:20.365Z,21.30
2018-12-14T17:01:48.847Z,20.47
2018-12-14T17:04:17.340Z,21.77
2018-12-14T17:06:45.836Z,19.27
2018-12-14T17:09:14.321Z,20.17
2018-12-14T17:11:42.809Z,17.37
2018-12-14T17:14:11.309Z,18.90
2018-12-14T17:16:39.744Z,19.97
2018-12-14T17:19:08.192Z,20.20
2018-12-14T17:21:36.617Z,17.57
2018-12-14T17:24:05.120Z,18.57
2018-12-14T17:26:33.548Z,20.07
2018-12-14T17:29:02.049Z,19.17
2018-12-14T17:31:30.478Z,17.77
2018-12-14T17:33:59.252Z,19.20
2018-12-14T17:36:27.682Z,18.83
2018-12-14T17:38:56.196Z,20.70
2018-12-14T17:41:24.638Z,18.77
2018-12-14T17:43:53.080Z,18.60
2018-12-14T17:46:21.537Z,18.87
2018-12-14T17:48:49.984Z,19.57
2018-12-14T17:51:18.409Z,18.00
2018-12-14T17:53:46.891Z,20.97
2018-12-14T17:56:15.335Z,18.83
2018-12-14T17:58:43.801Z,23.93
2018-12-14T18:01:12.246Z,20.97
2018-12-14T18:03:40.692Z,22.57
2018-12-14T18:06:09.125Z,20.60
2018-12-14T18:08:37.595Z,22.17
2018-12-14T18:11:06.070Z,20.37
2018-12-14T18:13:34.507Z,19.90
2018-12-14T18:16:03.601Z,19.13
2018-12-14T18:18:32.057Z,20.33
2018-12-14T18:21:00.495Z,21.63
2018-12-14T18:23:28.946Z,19.53
2018-12-14T18:25:58.089Z,22.40
2018-12-14T18:28:26.529Z,22.80
2018-12-14T18:30:54.957Z,20.70
2018-12-14T18:33:23.403Z,21.10
2018-12-14T18:35:51.829Z,22.37
2018-12-14T18:38:20.282Z,21.40
2018-12-14T18:40:48.732Z,23.60
2018-12-14T18:43:17.194Z,21.97
2018-12-14T18:45:45.631Z,21.27
2018-12-14T18:48:14.074Z,23.50
2018-12-14T18:50:42.524Z,20.70
2018-12-14T18:53:10.968Z,20.97
2018-12-14T18:55:39.390Z,23.40
2018-12-14T18:58:07.836Z,23.63
2018-12-14T19:00:36.267Z,27.50
2018-12-14T19:03:04.775Z,22.27
2018-12-14T19:05:33.221Z,20.03
2018-12-14T19:08:01.677Z,23.67
2018-12-14T19:10:30.126Z,23.53
2018-12-14T19:12:58.551Z,21.13
2018-12-14T19:15:27.103Z,22.07
2018-12-14T19:17:55.960Z,21.97
2018-12-14T19:20:24.432Z,21.33
2018-12-14T19:22:52.853Z,24.00
2018-12-14T19:25:21.298Z,21.77
2018-12-14T19:27:49.723Z,24.47
2018-12-14T19:30:18.166Z,23.53
2018-12-14T19:32:46.608Z,23.30
2018-12-14T19:35:15.117Z,25.70
2018-12-14T19:37:43.540Z,24.30
2018-12-14T19:40:12.036Z,25.87
2018-12-14T19:42:40.465Z,23.57
2018-12-14T19:45:09.533Z,24.33
2018-12-14T19:47:38.109Z,25.27
2018-12-14T19:50:08.968Z,27.27
2018-12-14T19:52:37.396Z,26.70
2018-12-14T19:55:08.386Z,24.50
2018-12-14T19:57:36.816Z,26.03
2018-12-14T20:00:10.636Z,25.27
2018-12-14T20:02:39.212Z,25.67
2018-12-14T20:05:08.628Z,25.10
2018-12-14T20:07:38.284Z,27.73
2018-12-14T20:10:08.138Z,28.10
2018-12-14T20:12:36.974Z,28.20
2018-12-14T20:15:06.754Z,26.67
2018-12-14T20:17:35.237Z,27.00
2018-12-14T20:20:04.478Z,26.60
2018-12-14T20:22:32.907Z,30.90
2018-12-14T20:25:01.350Z,25.83
2018-12-14T20:27:29.781Z,27.33
2018-12-14T20:29:58.223Z,25.60
2018-12-14T20:32:26.663Z,30.03
2018-12-14T20:34:55.248Z,29.97
2018-12-14T20:37:23.689Z,32.23
2018-12-14T20:39:52.133Z,27.53
2018-12-14T20:42:20.565Z,27.93
2018-12-14T20:44:49.006Z,26.43
2018-12-14T20:47:17.434Z,27.90
2018-12-14T20:49:45.893Z,27.93
2018-12-14T20:52:14.381Z,28.53
2018-12-14T20:54:42.825Z,25.50
2018-12-14T20:57:11.281Z,26.80
2018-12-14T20:59:40.132Z,26.90
2018-12-14T21:02:08.573Z,27.70
2018-12-14T21:04:37.021Z,32.30
2018-12-14T21:07:05.463Z,31.63
2018-12-14T21:09:33.906Z,30.10
2018-12-14T21:12:02.342Z,30.77
2018-12-14T21:14:30.972Z,29.17
2018-12-14T21:16:59.389Z,27.83
2018-12-14T21:19:27.824Z,27.93
2018-12-14T21:21:56.253Z,31.43
2018-12-14T21:24:24.681Z,30.13
2018-12-14T21:26:53.151Z,32.43
2018-12-14T21:29:21.597Z,28.30
2018-12-14T21:31:50.059Z,30.67
2018-12-14T21:34:19.628Z,30.40
2018-12-14T21:36:48.079Z,28.47
2018-12-14T21:39:16.571Z,27.33
2018-12-14T21:41:45.027Z,30.03
2018-12-14T21:44:13.464Z,28.80
2018-12-14T21:46:41.911Z,31.17
2018-12-14T21:49:10.346Z,27.50
2018-12-14T21:51:38.788Z,30.77
2018-12-14T21:54:07.229Z,28.33
2018-12-14T21:56:35.696Z,32.07
2018-12-14T21:59:04.181Z,27.77
2018-12-14T22:01:32.626Z,31.73
2018-12-14T22:07:32.008Z,30.20
2018-12-14T22:10:00.464Z,27.30
2018-12-14T22:12:28.947Z,29.30
2018-12-14T22:14:57.383Z,29.40
2018-12-14T22:17:25.809Z,31.63
2018-12-14T22:19:54.257Z,29.83
2018-12-14T22:22:22.702Z,32.47
2018-12-14T22:24:51.139Z,28.03
2018-12-14T22:27:19.598Z,30.67
2018-12-14T22:29:49.241Z,28.70
2018-12-14T22:32:17.681Z,29.60
2018-12-14T22:34:46.385Z,28.07
2018-12-14T22:37:15.108Z,31.53
2018-12-14T22:39:43.597Z,32.87
2018-12-14T22:42:12.057Z,30.03
2018-12-14T22:44:40.509Z,29.07
2018-12-14T22:47:08.957Z,33.37
2018-12-14T22:49:37.388Z,34.40
2018-12-14T22:52:05.839Z,30.33
2018-12-14T22:54:34.274Z,31.60
2018-12-14T22:57:02.720Z,28.30
2018-12-14T22:59:31.144Z,30.07
2018-12-14T23:02:00.621Z,30.13
2018-12-14T23:04:29.114Z,31.57
2018-12-14T23:06:57.568Z,29.27
2018-12-14T23:09:25.992Z,31.77
2018-12-14T23:11:54.432Z,32.23
2018-12-14T23:14:22.856Z,31.27
2018-12-14T23:16:52.361Z,31.63
2018-12-14T23:19:21.193Z,32.80
2018-12-14T23:21:49.639Z,31.37
2018-12-14T23:24:18.094Z,32.27
2018-12-14T23:26:46.547Z,36.30
2018-12-14T23:29:14.981Z,33.10
2018-12-14T23:31:43.434Z,28.50
2018-12-14T23:34:11.856Z,31.93
2018-12-14T23:36:40.301Z,31.63
2018-12-14T23:39:08.729Z,30.73
2018-12-14T23:41:37.193Z,30.77
2018-12-14T23:44:05.614Z,32.83
2018-12-14T23:46:34.485Z,31.10
2018-12-14T23:49:02.910Z,31.40
2018-12-14T23:51:31.411Z,33.17
2018-12-14T23:53:59.840Z,33.90
2018-12-14T23:56:28.313Z,33.77
2018-12-14T23:58:56.763Z,32.90
